International Virtual Aviation Organisation

Russian Federation and Kazakhstan MCD

 

Карточка аэропорта UAII

Внимание!
Информация на этой странице в стадии наполнения.
Если вы не увидели какой-то информации, или заметили неточность - пожалуйста сообщите нам!
Спасибо!
Команда RU-STAFF
Название аэропортаШымкент
Название аэропорта (англ.)Shymkent
Превышение1389 ft. (423.4 m.)
Координаты42°21.348', 69°28.734'
Высота перехода5000
Эшелон переходаFL70
Коды ответчика3430-3437, 3530-3537
Зона ОрВДШымкент РПИ (UAII)
Данные METARUAII 281309Z 25005MPS 5000 BR SCT014 OVC040CB M00/M00 Q1042 R28/2///50 NOSIG RMK QFE743/0991
Проноз погоды (TAF)UAII 281100Z 2812/2912 28003G08MPS 1000 SHSN BR BKN004 OVC020CB TX01/2909Z TNM09/2902Z TEMPO 2812/2817 25010MPS 0300 +SHSN BLSN TEMPO 2817/2904 13003G08MPS 0300 FZFG VV002 BECMG 2904/2906 05006G11MPS 6000 NSW SCT005 BKN020CB
NOTAMshow/hide NOTAM
AWOS   TABLE

Информация о ВПП

ВПП Длина ВПП (м.) Покрытие Курс ВПП Частота ILS
103300Железобетон106111.7
283300Железобетон286110.3

Диспетчерские позиции




Спутниковое изображение